createdAt,value
2024-02-29T00:00:18.157Z,2.80
2024-02-29T00:02:45.845Z,2.60
2024-02-29T00:05:13.959Z,2.87
2024-02-29T00:07:42.180Z,3.13
2024-02-29T00:10:10.740Z,2.50
2024-02-29T00:12:39.804Z,3.73
2024-02-29T00:15:08.792Z,2.77
2024-02-29T00:17:37.904Z,2.70
2024-02-29T00:20:10.353Z,3.40
2024-02-29T00:22:39.018Z,2.97
2024-02-29T00:25:07.476Z,2.73
2024-02-29T00:27:35.353Z,3.63
2024-02-29T00:30:03.076Z,3.53
2024-02-29T00:32:30.744Z,2.40
2024-02-29T00:34:59.790Z,2.47
2024-02-29T00:37:29.415Z,2.70
2024-02-29T00:39:57.324Z,3.00
2024-02-29T00:42:25.127Z,3.67
2024-02-29T00:44:52.761Z,2.87
2024-02-29T00:47:23.048Z,2.67
2024-02-29T00:49:50.774Z,2.40
2024-02-29T00:52:19.801Z,2.93
2024-02-29T00:54:47.499Z,3.43
2024-02-29T00:57:15.185Z,2.93
2024-02-29T00:59:41.871Z,2.77
2024-02-29T01:02:09.513Z,3.20
2024-02-29T01:04:37.197Z,3.07
2024-02-29T01:07:04.984Z,2.63
2024-02-29T01:09:34.165Z,2.33
2024-02-29T01:12:01.963Z,2.30
2024-02-29T01:14:29.681Z,1.73
2024-02-29T01:16:58.073Z,2.03
2024-02-29T01:19:25.721Z,2.50
2024-02-29T01:21:53.493Z,2.60
2024-02-29T01:24:21.174Z,2.20
2024-02-29T01:26:50.150Z,2.27
2024-02-29T01:29:18.582Z,2.30
2024-02-29T01:31:46.293Z,2.60
2024-02-29T01:34:14.145Z,2.30
2024-02-29T01:36:44.925Z,3.17
2024-02-29T01:39:12.580Z,2.60
2024-02-29T01:41:40.289Z,2.17
2024-02-29T01:44:09.261Z,2.20
2024-02-29T01:46:36.919Z,2.50
2024-02-29T01:49:04.864Z,2.30
2024-02-29T01:51:33.509Z,2.17
2024-02-29T01:54:01.192Z,2.10
2024-02-29T01:56:29.231Z,2.10
2024-02-29T01:58:57.883Z,2.10
2024-02-29T02:01:27.264Z,2.70
2024-02-29T02:03:55.014Z,2.33
2024-02-29T02:06:22.748Z,2.77
2024-02-29T02:08:50.437Z,1.67
2024-02-29T02:11:18.204Z,2.53
2024-02-29T02:13:45.957Z,2.70
2024-02-29T02:16:14.082Z,2.33
2024-02-29T02:18:43.162Z,2.40
2024-02-29T02:21:12.218Z,2.40
2024-02-29T02:23:40.048Z,2.40
2024-02-29T02:26:07.687Z,2.27
2024-02-29T02:28:35.339Z,2.10
2024-02-29T02:31:03.261Z,2.83
2024-02-29T02:33:31.027Z,2.00
2024-02-29T02:35:58.826Z,2.17
2024-02-29T02:38:28.078Z,1.63
2024-02-29T02:40:55.708Z,2.97
2024-02-29T02:43:23.444Z,2.97
2024-02-29T02:45:51.161Z,3.03
2024-02-29T02:48:18.846Z,2.47
2024-02-29T02:50:46.576Z,2.13
2024-02-29T02:53:14.274Z,1.50
2024-02-29T02:55:43.311Z,2.23
2024-02-29T02:58:11.204Z,2.43
2024-02-29T03:00:39.035Z,2.30
2024-02-29T03:03:06.830Z,2.47
2024-02-29T03:05:34.454Z,2.00
2024-02-29T03:08:02.671Z,2.73
2024-02-29T03:10:30.300Z,2.70
2024-02-29T03:12:59.374Z,1.93
2024-02-29T03:15:27.188Z,2.30
2024-02-29T03:17:57.145Z,2.90
2024-02-29T03:20:24.910Z,3.17
2024-02-29T03:22:52.865Z,1.53
2024-02-29T03:25:21.227Z,2.27
2024-02-29T03:27:49.700Z,2.00
2024-02-29T03:30:19.272Z,1.93
2024-02-29T03:32:47.132Z,2.03
2024-02-29T03:35:14.909Z,2.63
2024-02-29T03:37:42.546Z,1.43
2024-02-29T03:40:11.348Z,2.27
2024-02-29T03:42:40.834Z,2.33
2024-02-29T03:45:09.543Z,2.07
2024-02-29T03:47:38.666Z,2.23
2024-02-29T03:50:07.521Z,1.80
2024-02-29T03:52:35.174Z,2.90
2024-02-29T03:55:03.155Z,1.97
2024-02-29T03:57:30.847Z,1.87
2024-02-29T03:59:58.525Z,1.83
2024-02-29T04:02:26.283Z,1.93
2024-02-29T04:04:55.630Z,1.70
2024-02-29T04:07:23.397Z,2.37
2024-02-29T04:09:55.708Z,2.50
2024-02-29T04:12:23.627Z,2.80
2024-02-29T04:14:51.320Z,2.13
2024-02-29T04:17:19.250Z,2.97
2024-02-29T04:19:47.054Z,2.07
2024-02-29T04:22:17.052Z,1.57
2024-02-29T04:24:44.906Z,2.27
2024-02-29T04:27:12.670Z,1.83
2024-02-29T04:29:40.318Z,2.10
2024-02-29T04:32:08.246Z,2.67
2024-02-29T04:34:35.933Z,1.70
2024-02-29T04:37:04.231Z,2.57
2024-02-29T04:39:33.277Z,1.53
2024-02-29T04:42:00.958Z,2.00
2024-02-29T04:44:29.728Z,2.20
2024-02-29T04:46:57.394Z,1.47
2024-02-29T04:49:25.070Z,2.73
2024-02-29T04:51:52.750Z,2.47
2024-02-29T04:54:20.483Z,2.57
2024-02-29T04:56:49.483Z,2.20
2024-02-29T04:59:17.311Z,2.73
2024-02-29T05:01:46.229Z,2.90
2024-02-29T05:04:14.129Z,2.20
2024-02-29T05:06:41.867Z,1.87
2024-02-29T05:09:09.826Z,1.50
2024-02-29T05:11:39.684Z,2.53
2024-02-29T05:14:09.071Z,2.17
2024-02-29T05:16:36.865Z,1.93
2024-02-29T05:19:04.704Z,2.03
2024-02-29T05:21:32.394Z,2.80
2024-02-29T05:24:00.063Z,1.50
2024-02-29T05:26:27.714Z,2.33
2024-02-29T05:28:56.833Z,1.93
2024-02-29T05:31:26.052Z,2.13
2024-02-29T05:33:53.779Z,1.63
2024-02-29T05:36:21.465Z,1.40
2024-02-29T05:38:51.649Z,2.43
2024-02-29T05:41:19.721Z,1.77
2024-02-29T05:43:47.524Z,2.30
2024-02-29T05:46:15.599Z,2.13
2024-02-29T05:48:44.797Z,1.80
2024-02-29T05:51:12.701Z,1.73
2024-02-29T05:53:40.627Z,2.80
2024-02-29T05:56:08.278Z,2.07
2024-02-29T05:58:35.921Z,1.43
2024-02-29T06:01:04.355Z,1.57
2024-02-29T06:03:32.358Z,1.70
2024-02-29T06:06:02.340Z,1.70
2024-02-29T06:08:30.263Z,1.87
2024-02-29T06:10:58.402Z,1.97
2024-02-29T06:13:26.227Z,2.13
2024-02-29T06:15:53.925Z,1.93
2024-02-29T06:18:21.623Z,1.70
2024-02-29T06:20:49.270Z,2.43
2024-02-29T06:23:18.303Z,2.60
2024-02-29T06:25:45.950Z,1.93
2024-02-29T06:28:13.800Z,1.83
2024-02-29T06:30:41.570Z,2.93
2024-02-29T06:33:09.308Z,1.73
2024-02-29T06:35:37.046Z,1.50
2024-02-29T06:38:04.820Z,1.83
2024-02-29T06:40:33.821Z,1.67
2024-02-29T06:43:01.541Z,1.80
2024-02-29T06:45:29.249Z,2.50
2024-02-29T06:47:58.378Z,1.83
2024-02-29T06:50:26.120Z,2.23
2024-02-29T06:52:55.046Z,2.17
2024-02-29T06:55:22.990Z,2.13
2024-02-29T06:57:52.324Z,2.30
2024-02-29T07:00:20.710Z,2.33
2024-02-29T07:02:48.379Z,1.77
2024-02-29T07:05:16.225Z,2.57
2024-02-29T07:07:45.969Z,2.57
2024-02-29T07:10:14.139Z,1.67
2024-02-29T07:12:42.522Z,2.63
2024-02-29T07:15:12.167Z,1.83
2024-02-29T07:17:39.875Z,1.50
2024-02-29T07:20:14.175Z,2.67
2024-02-29T07:22:42.885Z,1.23
2024-02-29T07:25:11.388Z,1.83
2024-02-29T07:27:40.209Z,2.40
2024-02-29T07:30:08.587Z,1.87
2024-02-29T07:32:37.918Z,1.53
2024-02-29T07:35:06.164Z,2.47
2024-02-29T07:37:34.002Z,1.60
2024-02-29T07:40:02.296Z,1.90
2024-02-29T07:42:30.223Z,2.10
2024-02-29T07:44:58.437Z,1.87
2024-02-29T07:47:26.124Z,1.30
2024-02-29T07:49:55.156Z,2.77
2024-02-29T07:52:22.860Z,2.10
2024-02-29T07:54:50.895Z,2.43
2024-02-29T07:57:18.684Z,1.80
2024-02-29T07:59:46.845Z,1.87
2024-02-29T08:02:14.680Z,1.87
2024-02-29T08:04:44.986Z,1.93
2024-02-29T08:07:14.258Z,2.13
2024-02-29T08:09:42.276Z,2.40
2024-02-29T08:12:10.249Z,2.07
2024-02-29T08:14:37.954Z,1.70
2024-02-29T08:17:06.824Z,2.07
2024-02-29T08:19:34.506Z,2.03
2024-02-29T08:22:02.170Z,2.50
2024-02-29T08:24:31.215Z,2.03
2024-02-29T08:26:58.890Z,1.70
2024-02-29T08:29:26.570Z,1.60
2024-02-29T08:31:54.525Z,1.27
2024-02-29T08:34:22.295Z,1.93
2024-02-29T08:36:51.084Z,1.53
2024-02-29T08:39:18.900Z,1.60
2024-02-29T08:41:48.410Z,2.60
2024-02-29T08:44:16.982Z,1.67
2024-02-29T08:46:44.878Z,2.37
2024-02-29T08:49:12.622Z,1.87
2024-02-29T08:51:40.356Z,1.90
2024-02-29T08:54:10.519Z,2.20
2024-02-29T08:56:38.420Z,2.07
2024-02-29T08:59:07.454Z,2.03
2024-02-29T09:01:35.211Z,1.40
2024-02-29T09:04:03.059Z,1.50
2024-02-29T09:06:40.720Z,1.10
2024-02-29T09:09:09.503Z,2.03
2024-02-29T09:11:37.434Z,1.60
2024-02-29T09:14:05.208Z,1.60
2024-02-29T09:16:35.014Z,1.67
2024-02-29T09:19:04.368Z,1.43
2024-02-29T09:21:31.368Z,1.10
2024-02-29T09:23:59.274Z,1.73
2024-02-29T09:26:27.048Z,1.63
2024-02-29T09:28:55.348Z,1.70
2024-02-29T09:31:23.169Z,1.53
2024-02-29T09:33:54.623Z,1.00
2024-02-29T09:36:22.558Z,1.60
2024-02-29T09:38:50.267Z,1.37
2024-02-29T09:41:32.565Z,1.30
2024-02-29T09:44:07.498Z,1.30
2024-02-29T09:46:35.183Z,1.30
2024-02-29T09:49:05.464Z,1.20
2024-02-29T09:51:34.049Z,1.00
2024-02-29T09:54:03.000Z,1.63
2024-02-29T09:56:30.726Z,1.30
2024-02-29T09:59:01.379Z,1.30
2024-02-29T10:01:31.771Z,1.10
2024-02-29T10:04:00.418Z,1.47
2024-02-29T10:06:29.552Z,1.70
2024-02-29T10:08:57.240Z,1.13
2024-02-29T10:11:29.139Z,1.13
2024-02-29T10:13:58.375Z,1.40
2024-02-29T10:16:28.602Z,1.37
2024-02-29T10:18:56.798Z,1.73
2024-02-29T10:21:24.760Z,1.40
2024-02-29T10:23:58.233Z,1.03
2024-02-29T10:26:25.883Z,1.03
2024-02-29T10:28:53.582Z,1.60
2024-02-29T10:31:21.436Z,1.20
2024-02-29T10:33:49.842Z,1.07
2024-02-29T10:36:17.598Z,1.10
2024-02-29T10:38:45.264Z,1.60
2024-02-29T10:41:16.836Z,1.57
2024-02-29T10:43:46.873Z,1.30
2024-02-29T10:46:17.312Z,1.20
2024-02-29T10:48:50.775Z,1.67
2024-02-29T10:51:27.147Z,1.92
2024-02-29T10:54:07.727Z,1.50
2024-02-29T10:56:38.017Z,1.20
2024-02-29T10:59:08.302Z,1.67
2024-02-29T11:01:37.665Z,1.50
2024-02-29T11:04:07.012Z,2.00
2024-02-29T11:06:39.830Z,1.40
2024-02-29T11:09:10.305Z,1.83
2024-02-29T11:11:39.817Z,1.25
2024-02-29T11:14:12.062Z,1.27
2024-02-29T11:16:41.151Z,1.60
2024-02-29T11:19:12.491Z,1.43
2024-02-29T11:21:40.634Z,1.33
2024-02-29T11:24:09.669Z,1.23
2024-02-29T11:26:39.673Z,1.08
2024-02-29T11:29:14.108Z,1.57
2024-02-29T11:31:46.010Z,1.03
2024-02-29T11:34:13.722Z,1.40
2024-02-29T11:36:42.924Z,1.43
2024-02-29T11:39:11.704Z,1.40
2024-02-29T11:41:40.793Z,1.80
2024-02-29T11:44:09.087Z,1.40
2024-02-29T11:46:36.771Z,1.52
2024-02-29T11:49:04.625Z,1.52
2024-02-29T11:51:32.889Z,1.60
2024-02-29T11:54:00.670Z,1.10
2024-02-29T11:56:28.425Z,1.15
2024-02-29T11:58:57.412Z,1.58
2024-02-29T12:01:25.164Z,1.40
2024-02-29T12:03:53.262Z,1.60
2024-02-29T12:06:21.766Z,1.47
2024-02-29T12:08:50.432Z,1.30
2024-02-29T12:11:18.718Z,1.17
2024-02-29T12:13:46.614Z,1.25
2024-02-29T12:16:16.229Z,0.88
2024-02-29T12:18:44.740Z,1.58
2024-02-29T12:21:12.666Z,1.38
2024-02-29T12:23:41.515Z,1.95
2024-02-29T12:26:11.029Z,1.83
2024-02-29T12:28:39.563Z,1.17
2024-02-29T12:31:08.600Z,1.23
2024-02-29T12:33:40.050Z,1.73
2024-02-29T12:36:08.705Z,1.20
2024-02-29T12:38:36.762Z,1.23
2024-02-29T12:41:06.498Z,1.20
2024-02-29T12:43:34.605Z,1.07
2024-02-29T12:46:03.844Z,1.67
2024-02-29T12:48:31.866Z,0.90
2024-02-29T12:51:00.911Z,1.60
2024-02-29T12:53:28.688Z,1.10
2024-02-29T12:55:56.382Z,1.20
2024-02-29T12:58:24.168Z,1.00
2024-02-29T13:00:51.981Z,0.77
2024-02-29T13:03:20.094Z,1.42
2024-02-29T13:05:47.835Z,1.83
2024-02-29T13:08:16.855Z,1.02
2024-02-29T13:10:44.526Z,1.05
2024-02-29T13:13:12.701Z,1.10
2024-02-29T13:15:40.478Z,1.03
2024-02-29T13:18:08.351Z,1.02
2024-02-29T13:20:36.428Z,1.33
2024-02-29T13:23:04.082Z,1.13
2024-02-29T13:25:34.302Z,0.60
2024-02-29T13:28:02.444Z,1.03
2024-02-29T13:30:30.161Z,1.10
2024-02-29T13:32:57.891Z,0.90
2024-02-29T13:35:25.643Z,0.80
2024-02-29T13:37:53.304Z,0.90
2024-02-29T13:40:21.039Z,0.80
2024-02-29T13:42:50.265Z,0.70
2024-02-29T13:45:17.934Z,0.90
2024-02-29T13:47:50.253Z,0.93
2024-02-29T13:50:19.864Z,0.90
2024-02-29T13:52:47.642Z,1.00
2024-02-29T13:55:15.862Z,0.93
2024-02-29T13:57:43.977Z,1.07
2024-02-29T14:00:13.575Z,0.60
2024-02-29T14:02:41.256Z,0.73
2024-02-29T14:05:09.576Z,0.80
2024-02-29T14:07:37.304Z,1.10
2024-02-29T14:10:06.049Z,1.02
2024-02-29T14:12:34.588Z,0.98
2024-02-29T14:15:02.335Z,0.97
2024-02-29T14:17:31.447Z,1.00
2024-02-29T14:19:59.193Z,1.13
2024-02-29T14:22:26.908Z,0.70
2024-02-29T14:24:54.849Z,1.05
2024-02-29T14:27:24.026Z,0.70
2024-02-29T14:29:51.695Z,0.90
2024-02-29T14:32:19.419Z,1.13
2024-02-29T14:34:48.407Z,0.80
2024-02-29T14:37:16.532Z,1.23
2024-02-29T14:39:44.526Z,0.90
2024-02-29T14:42:12.339Z,0.77
2024-02-29T14:44:40.039Z,1.00
2024-02-29T14:47:08.628Z,1.05
2024-02-29T14:49:36.387Z,0.80
2024-02-29T14:52:07.120Z,0.90
2024-02-29T14:54:35.315Z,1.10
2024-02-29T14:57:03.294Z,0.93
2024-02-29T14:59:30.973Z,0.90
2024-02-29T15:01:58.768Z,1.13
2024-02-29T15:04:26.581Z,0.75
2024-02-29T15:06:54.435Z,1.00
2024-02-29T15:09:23.659Z,1.50
2024-02-29T15:11:51.292Z,0.55
2024-02-29T15:14:19.051Z,1.08
2024-02-29T15:16:46.733Z,1.08
2024-02-29T15:19:14.695Z,1.27
2024-02-29T15:21:42.464Z,1.02
2024-02-29T15:24:10.430Z,1.10
2024-02-29T15:26:40.952Z,1.27
2024-02-29T15:29:08.889Z,1.17
2024-02-29T15:31:38.722Z,1.40
2024-02-29T15:34:06.488Z,1.50
2024-02-29T15:36:34.504Z,1.17
2024-02-29T15:39:03.321Z,1.30
2024-02-29T15:41:30.995Z,1.00
2024-02-29T15:43:59.983Z,1.30
2024-02-29T15:46:28.005Z,1.00
2024-02-29T15:48:55.872Z,1.00
2024-02-29T15:51:25.070Z,1.17
2024-02-29T15:53:52.792Z,1.40
2024-02-29T15:56:20.547Z,1.10
2024-02-29T15:58:48.330Z,1.15
2024-02-29T16:01:17.905Z,0.95
2024-02-29T16:03:45.622Z,0.90
2024-02-29T16:06:13.808Z,1.13
2024-02-29T16:08:41.721Z,1.05
2024-02-29T16:11:09.928Z,0.70
2024-02-29T16:13:37.635Z,1.10
2024-02-29T16:16:06.153Z,1.10
2024-02-29T16:18:35.279Z,0.68
2024-02-29T16:21:06.867Z,1.00
2024-02-29T16:23:35.731Z,1.43
2024-02-29T16:26:04.498Z,0.90
2024-02-29T16:28:32.420Z,0.70
2024-02-29T16:31:00.124Z,0.80
2024-02-29T16:33:27.802Z,1.02
2024-02-29T16:35:56.967Z,0.93
2024-02-29T16:38:25.114Z,0.93
2024-02-29T16:40:55.568Z,0.80
2024-02-29T16:43:23.720Z,0.90
2024-02-29T16:45:51.707Z,0.65
2024-02-29T16:48:19.512Z,0.90
2024-02-29T16:50:47.433Z,1.00
2024-02-29T16:53:16.538Z,0.90
2024-02-29T16:55:44.231Z,0.90
2024-02-29T16:58:12.242Z,1.10
2024-02-29T17:00:40.128Z,0.90
2024-02-29T17:03:08.030Z,0.67
2024-02-29T17:05:35.725Z,1.20
2024-02-29T17:08:03.596Z,1.10
2024-02-29T17:10:32.871Z,1.00
2024-02-29T17:13:01.044Z,0.80
2024-02-29T17:15:28.789Z,1.00
2024-02-29T17:17:56.580Z,1.10
2024-02-29T17:20:24.417Z,1.07
2024-02-29T17:22:52.080Z,1.27
2024-02-29T17:25:19.833Z,1.17
2024-02-29T17:27:48.968Z,0.70
2024-02-29T17:30:16.876Z,1.03
2024-02-29T17:32:44.858Z,0.90
2024-02-29T17:35:12.557Z,1.10
2024-02-29T17:37:40.279Z,1.10
2024-02-29T17:40:09.294Z,1.90
2024-02-29T17:42:37.045Z,1.00
2024-02-29T17:45:06.812Z,1.00
2024-02-29T17:47:34.567Z,1.10
2024-02-29T17:50:02.238Z,1.30
2024-02-29T17:52:29.900Z,0.70
2024-02-29T17:54:59.122Z,1.33
2024-02-29T17:57:26.884Z,1.20
2024-02-29T17:59:54.559Z,1.30
2024-02-29T18:02:23.879Z,1.13
2024-02-29T18:04:52.204Z,1.10
2024-02-29T18:07:20.143Z,1.03
2024-02-29T18:09:48.147Z,1.00
2024-02-29T18:12:15.858Z,1.00
2024-02-29T18:14:43.640Z,1.13
2024-02-29T18:17:11.306Z,0.90
2024-02-29T18:19:40.623Z,1.00
2024-02-29T18:22:08.393Z,1.27
2024-02-29T18:24:39.563Z,0.70
2024-02-29T18:27:07.908Z,1.03
2024-02-29T18:29:35.643Z,0.83
2024-02-29T18:32:03.358Z,0.70
2024-02-29T18:34:31.146Z,0.80
2024-02-29T18:37:00.233Z,1.27
2024-02-29T18:39:28.047Z,0.87
2024-02-29T18:41:56.496Z,1.23
2024-02-29T18:44:24.370Z,0.93
2024-02-29T18:46:52.214Z,1.37
2024-02-29T18:49:20.896Z,1.77
2024-02-29T18:51:50.138Z,0.90
2024-02-29T18:54:19.908Z,0.97
2024-02-29T18:56:48.761Z,1.50
2024-02-29T18:59:16.579Z,1.70
2024-02-29T19:01:45.251Z,1.30
2024-02-29T19:04:13.499Z,1.30
2024-02-29T19:06:41.192Z,1.53
2024-02-29T19:09:08.996Z,2.20
2024-02-29T19:11:40.938Z,1.90
2024-02-29T19:14:08.677Z,1.80
2024-02-29T19:16:40.261Z,1.70
2024-02-29T19:19:08.144Z,1.87
2024-02-29T19:21:37.542Z,1.90
2024-02-29T19:24:05.904Z,1.93
2024-02-29T19:26:33.621Z,1.80
2024-02-29T19:29:02.633Z,2.20
2024-02-29T19:31:30.379Z,1.50
2024-02-29T19:33:58.180Z,2.10
2024-02-29T19:36:27.114Z,1.83
2024-02-29T19:38:55.054Z,1.37
2024-02-29T19:41:22.826Z,1.90
2024-02-29T19:43:50.586Z,1.60
2024-02-29T19:46:19.846Z,1.27
2024-02-29T19:48:47.681Z,2.20
2024-02-29T19:51:15.615Z,1.97
2024-02-29T19:53:44.685Z,1.63
2024-02-29T19:56:12.487Z,2.00
2024-02-29T19:58:40.177Z,1.60
2024-02-29T20:01:08.062Z,1.33
2024-02-29T20:03:37.272Z,1.40
2024-02-29T20:06:05.442Z,1.90
2024-02-29T20:08:33.124Z,2.43
2024-02-29T20:11:00.885Z,1.50
2024-02-29T20:13:28.702Z,1.60
2024-02-29T20:15:56.405Z,1.70
2024-02-29T20:18:24.771Z,1.43
2024-02-29T20:20:53.841Z,1.60
2024-02-29T20:23:22.207Z,1.00
2024-02-29T20:25:51.365Z,1.40
2024-02-29T20:28:19.729Z,1.40
2024-02-29T20:30:48.267Z,1.50
2024-02-29T20:33:16.460Z,2.00
2024-02-29T20:35:44.350Z,2.07
2024-02-29T20:38:14.589Z,1.20
2024-02-29T20:40:42.400Z,1.87
2024-02-29T20:43:10.141Z,1.97
2024-02-29T20:45:37.823Z,1.97
2024-02-29T20:48:06.402Z,1.57
2024-02-29T20:50:34.145Z,2.50
2024-02-29T20:53:02.071Z,2.50
2024-02-29T20:55:31.297Z,2.20
2024-02-29T20:57:59.106Z,2.03
2024-02-29T21:00:26.788Z,1.87
2024-02-29T21:02:54.500Z,2.50
2024-02-29T21:05:22.179Z,2.50
2024-02-29T21:07:49.906Z,3.57
2024-02-29T21:10:18.841Z,2.03
2024-02-29T21:12:48.128Z,2.13
2024-02-29T21:15:16.615Z,1.97
2024-02-29T21:17:46.222Z,2.00
2024-02-29T21:20:14.152Z,1.87
2024-02-29T21:22:45.038Z,1.63
2024-02-29T21:25:13.140Z,1.77
2024-02-29T21:27:40.907Z,1.53
2024-02-29T21:30:11.683Z,1.80
2024-02-29T21:32:39.876Z,2.20
2024-02-29T21:35:08.260Z,1.83
2024-02-29T21:37:37.249Z,2.40
2024-02-29T21:40:06.373Z,1.80
2024-02-29T21:42:34.199Z,1.40
2024-02-29T21:45:01.909Z,2.10
2024-02-29T21:47:31.031Z,1.43
2024-02-29T21:49:58.740Z,2.10
2024-02-29T21:52:26.590Z,2.27
2024-02-29T21:54:54.365Z,1.60
2024-02-29T21:57:22.020Z,1.57
2024-02-29T21:59:49.765Z,2.07
2024-02-29T22:02:17.457Z,1.77
2024-02-29T22:04:46.479Z,2.60
2024-02-29T22:07:14.285Z,1.80
2024-02-29T22:09:42.000Z,1.30
2024-02-29T22:12:10.647Z,1.07
2024-02-29T22:14:38.397Z,2.07
2024-02-29T22:17:06.106Z,1.87
2024-02-29T22:19:33.826Z,2.27
2024-02-29T22:22:02.920Z,1.77
2024-02-29T22:24:30.618Z,2.03
2024-02-29T22:26:58.744Z,2.27
2024-02-29T22:29:25.493Z,2.23
2024-02-29T22:31:53.243Z,2.23
2024-02-29T22:34:20.945Z,2.67
2024-02-29T22:36:48.678Z,2.67
2024-02-29T22:39:17.743Z,2.43
2024-02-29T22:41:52.971Z,2.43
2024-02-29T22:44:25.083Z,2.90
2024-02-29T22:46:52.767Z,2.50
2024-02-29T22:49:20.493Z,3.13
2024-02-29T22:51:48.200Z,3.30
2024-02-29T22:54:18.235Z,2.73
2024-02-29T22:56:45.904Z,3.23
2024-02-29T22:59:13.727Z,3.77
2024-02-29T23:01:46.315Z,3.60
2024-02-29T23:04:14.580Z,3.10
2024-02-29T23:06:42.562Z,3.97
2024-02-29T23:09:10.208Z,3.10
2024-02-29T23:11:39.840Z,2.93
2024-02-29T23:14:07.506Z,3.33
2024-02-29T23:16:35.337Z,3.20
2024-02-29T23:19:03.106Z,3.33
2024-02-29T23:21:30.904Z,3.57
2024-02-29T23:23:58.535Z,2.63
2024-02-29T23:26:26.272Z,3.30
2024-02-29T23:28:55.287Z,3.43
2024-02-29T23:31:23.146Z,3.60
2024-02-29T23:33:52.064Z,4.20
2024-02-29T23:36:19.768Z,2.83
2024-02-29T23:38:47.420Z,3.33
2024-02-29T23:41:15.045Z,3.33
2024-02-29T23:43:42.721Z,3.20
2024-02-29T23:46:11.733Z,2.37
2024-02-29T23:48:39.858Z,3.40
2024-02-29T23:51:07.556Z,3.13
2024-02-29T23:53:35.211Z,3.80
2024-02-29T23:56:02.975Z,3.30
2024-02-29T23:58:30.727Z,4.30
